Time;durP1;ratioP1;P1;durP2;ratioP2;P2;SDS_P1;SDS_P2;PMS_P1;PMS_P2;Temp;Humidity;BMP_temperature;BMP_pressure;BME280_temperature;BME280_humidity;BME280_pressure;Samples;Min_cycle;Max_cycle;Signal;HPM_P1;HPM_P2
2023/01/26 00:01:28;;;;;;;40.37;22.70;;;;;;;5.95;58.79;97987.06;5064709;28;20650;-72
2023/01/26 00:03:54;;;;;;;37.47;22.13;;;;;;;5.90;59.00;97987.38;5054427;28;20183;-72
2023/01/26 00:06:21;;;;;;;39.53;21.47;;;;;;;5.95;58.69;97985.28;5065337;28;20433;-72
2023/01/26 00:08:48;;;;;;;39.83;22.73;;;;;;;5.90;58.39;97981.31;5055766;28;20976;-72
2023/01/26 00:11:16;;;;;;;41.83;22.47;;;;;;;5.66;58.86;97977.69;5058917;28;20453;-72
2023/01/26 00:13:42;;;;;;;41.93;22.53;;;;;;;5.81;59.13;97972.34;5063016;28;21290;-72
2023/01/26 00:16:10;;;;;;;37.50;21.23;;;;;;;5.87;58.25;97971.97;5058769;28;20524;-71
2023/01/26 00:18:36;;;;;;;41.13;21.00;;;;;;;5.83;58.27;97966.13;5062079;28;20202;-73
2023/01/26 00:21:02;;;;;;;38.00;22.77;;;;;;;5.86;58.27;97965.09;5041830;28;20423;-72
2023/01/26 00:23:30;;;;;;;40.57;22.20;;;;;;;5.88;58.42;97950.22;5057643;28;20428;-72
2023/01/26 00:25:55;;;;;;;40.10;22.97;;;;;;;5.91;58.73;97944.81;5059503;28;20418;-72
2023/01/26 00:28:21;;;;;;;42.13;23.43;;;;;;;5.82;58.81;97943.66;5066385;28;20417;-72
2023/01/26 00:30:46;;;;;;;44.10;23.67;;;;;;;5.62;59.23;97937.19;5057624;28;20731;-72
2023/01/26 00:33:12;;;;;;;41.43;23.67;;;;;;;5.81;59.52;97938.53;5049797;28;20204;-72
2023/01/26 00:35:37;;;;;;;44.10;23.50;;;;;;;5.89;58.74;97933.66;5061364;28;20235;-71
2023/01/26 00:38:03;;;;;;;44.70;22.33;;;;;;;5.96;58.63;97934.91;5063931;28;20552;-71
2023/01/26 00:40:29;;;;;;;48.37;24.53;;;;;;;5.92;58.30;97930.84;5054941;28;20194;-71
2023/01/26 00:42:55;;;;;;;40.43;22.20;;;;;;;5.72;58.75;97927.00;5065788;28;21160;-72
2023/01/26 00:45:20;;;;;;;46.33;23.90;;;;;;;5.76;59.13;97922.44;5061520;28;20183;-72
2023/01/26 00:47:46;;;;;;;41.20;22.63;;;;;;;5.82;58.98;97919.41;5060543;28;20217;-71
2023/01/26 00:50:12;;;;;;;42.40;23.37;;;;;;;5.86;58.62;97923.47;5054686;28;20474;-70
2023/01/26 00:52:37;;;;;;;37.80;20.97;;;;;;;5.79;58.41;97917.03;5055218;28;20183;-71
2023/01/26 00:55:03;;;;;;;38.40;21.13;;;;;;;5.77;58.45;97914.50;5064380;28;20257;-71
2023/01/26 00:57:28;;;;;;;39.70;22.83;;;;;;;5.67;59.18;97913.47;5061887;28;20178;-71
2023/01/26 00:59:54;;;;;;;45.47;22.60;;;;;;;5.68;59.46;97913.38;5065127;28;20233;-70
2023/01/26 01:02:19;;;;;;;39.33;21.97;;;;;;;5.80;59.11;97910.84;5059495;28;20182;-70
2023/01/26 01:04:45;;;;;;;39.03;21.13;;;;;;;5.88;58.73;97908.59;5061247;28;20182;-71
2023/01/26 01:07:10;;;;;;;41.27;21.00;;;;;;;5.88;58.57;97897.31;5055602;28;20219;-71
2023/01/26 01:09:36;;;;;;;40.50;21.70;;;;;;;5.83;58.32;97902.84;5057926;28;20233;-71
2023/01/26 01:12:01;;;;;;;39.33;21.30;;;;;;;5.85;58.55;97895.78;5061918;28;20586;-70
2023/01/26 01:14:27;;;;;;;40.23;22.57;;;;;;;5.80;58.29;97903.06;5054349;28;20190;-71
2023/01/26 01:16:52;;;;;;;40.03;21.47;;;;;;;5.87;58.84;97900.88;5062158;28;20193;-72
2023/01/26 01:19:17;;;;;;;39.40;20.53;;;;;;;5.90;58.29;97909.31;5061250;28;20222;-73
2023/01/26 01:21:43;;;;;;;38.73;21.17;;;;;;;5.89;58.06;97910.25;5057550;28;20174;-72
2023/01/26 01:24:10;;;;;;;41.07;21.83;;;;;;;5.89;58.48;97907.66;5057953;28;20186;-70
2023/01/26 01:26:35;;;;;;;37.47;21.23;;;;;;;5.84;58.17;97905.38;5058478;28;20529;-73
2023/01/26 01:29:01;;;;;;;38.83;20.97;;;;;;;5.74;58.31;97909.50;5061590;28;20545;-70
2023/01/26 01:31:28;;;;;;;42.63;23.50;;;;;;;5.77;58.95;97903.28;5052640;28;20310;-71
2023/01/26 01:33:56;;;;;;;40.90;20.83;;;;;;;5.79;58.71;97909.22;5055289;28;20190;-72
2023/01/26 01:36:22;;;;;;;42.13;21.47;;;;;;;5.75;59.08;97902.56;5059659;28;20426;-71
2023/01/26 01:38:48;;;;;;;37.80;20.90;;;;;;;5.73;58.84;97896.63;5064560;28;20495;-73
2023/01/26 01:41:16;;;;;;;41.83;22.57;;;;;;;5.62;59.43;97892.13;5059665;28;20194;-72
2023/01/26 01:43:41;;;;;;;43.40;22.00;;;;;;;5.60;59.44;97900.06;5065550;28;20739;-74
2023/01/26 01:46:16;;;;;;;36.03;21.07;;;;;;;5.70;59.62;97897.66;5062140;28;20421;-70
2023/01/26 01:48:50;;;;;;;42.87;22.60;;;;;;;5.72;59.03;97897.56;5052784;28;20228;-72
2023/01/26 01:51:20;;;;;;;38.03;20.77;;;;;;;5.75;59.17;97879.97;5063942;28;20456;-72
2023/01/26 01:53:47;;;;;;;36.53;21.07;;;;;;;5.75;59.22;97885.16;5053749;28;20425;-72
2023/01/26 01:56:20;;;;;;;35.20;20.30;;;;;;;5.76;58.78;97884.22;5063726;28;20519;-71
2023/01/26 01:58:47;;;;;;;37.03;21.27;;;;;;;5.80;58.87;97883.09;5060742;28;20445;-70
2023/01/26 02:01:12;;;;;;;39.73;20.67;;;;;;;5.74;59.22;97887.88;5063610;28;20424;-71
2023/01/26 02:03:39;;;;;;;38.70;19.53;;;;;;;5.77;59.04;97882.47;5052755;28;20506;-71
2023/01/26 02:06:44;;;;;;;36.70;20.07;;;;;;;5.75;58.81;97871.34;5061386;28;20743;-69
2023/01/26 02:10:17;;;;;;;38.20;20.93;;;;;;;5.79;59.24;97875.41;5060107;28;20876;-70
2023/01/26 02:11:56;;;;;;;42.33;20.87;;;;;;;5.60;58.83;97875.84;5062907;28;20499;-70
2023/01/26 02:14:21;;;;;;;39.47;20.90;;;;;;;5.55;59.28;97870.91;5058786;28;20935;-71
2023/01/26 02:16:47;;;;;;;46.43;21.87;;;;;;;5.57;59.42;97865.63;5053135;28;20474;-69
2023/01/26 02:19:45;;;;;;;36.90;20.13;;;;;;;5.55;59.30;97870.91;5065165;28;20234;-70
2023/01/26 02:22:17;;;;;;;34.10;18.70;;;;;;;5.57;59.27;97866.44;5041668;28;20282;-70
2023/01/26 02:24:43;;;;;;;34.90;18.87;;;;;;;5.52;59.18;97865.94;5056681;28;20523;-70
2023/01/26 02:27:08;;;;;;;37.17;19.63;;;;;;;5.53;59.64;97860.63;5046849;28;20801;-70
2023/01/26 02:29:34;;;;;;;36.20;19.70;;;;;;;5.58;59.62;97859.50;5068749;28;20237;-70
2023/01/26 02:31:59;;;;;;;38.20;19.27;;;;;;;5.59;59.63;97854.19;5059889;28;20207;-72
2023/01/26 02:34:27;;;;;;;41.63;21.13;;;;;;;5.63;59.55;97850.44;5071525;28;20178;-72
2023/01/26 02:36:57;;;;;;;36.80;20.87;;;;;;;5.63;59.87;97853.03;5064626;28;20213;-72
2023/01/26 02:39:43;;;;;;;39.97;21.27;;;;;;;5.54;59.28;97858.88;5067267;28;20535;-72
2023/01/26 02:44:56;;;;;;;40.97;21.20;;;;;;;5.63;59.26;97854.78;5063918;28;20857;-71
2023/01/26 02:47:21;;;;;;;36.03;20.93;;;;;;;5.54;59.25;97853.69;5061389;28;20453;-71
2023/01/26 02:49:49;;;;;;;45.67;22.40;;;;;;;5.59;59.81;97848.97;5059049;28;20692;-72
2023/01/26 02:52:15;;;;;;;38.77;21.30;;;;;;;5.49;60.07;97842.75;5065370;28;20214;-72
2023/01/26 02:55:21;;;;;;;34.10;18.97;;;;;;;5.55;59.74;97842.31;5065038;28;20845;-71
2023/01/26 02:57:38;;;;;;;37.93;19.67;;;;;;;5.36;59.70;97846.19;5051462;28;20820;-71
2023/01/26 03:00:10;;;;;;;39.37;18.50;;;;;;;5.20;60.14;97841.19;5064756;28;20445;-72
2023/01/26 03:02:35;;;;;;;32.47;18.27;;;;;;;5.30;60.24;97838.78;5060685;28;20980;-71
2023/01/26 03:05:00;;;;;;;35.53;19.40;;;;;;;5.41;60.64;97843.25;5066349;28;20435;-71
2023/01/26 03:07:26;;;;;;;44.00;20.33;;;;;;;5.47;60.11;97839.41;5063593;28;21944;-71
2023/01/26 03:09:52;;;;;;;40.80;20.30;;;;;;;5.52;60.06;97843.38;5063957;28;20213;-72
2023/01/26 03:12:17;;;;;;;38.40;20.50;;;;;;;5.56;60.19;97838.78;5060686;28;20234;-71
2023/01/26 03:14:43;;;;;;;34.53;19.10;;;;;;;5.55;59.80;97837.09;5058700;28;20183;-72
2023/01/26 03:17:08;;;;;;;37.97;18.30;;;;;;;5.57;59.63;97832.66;5061837;28;20222;-70
2023/01/26 03:27:47;;;;;;;38.20;19.00;;;;;;;5.57;59.59;97816.22;5055418;28;21112;-72
2023/01/26 03:30:16;;;;;;;36.87;18.20;;;;;;;5.61;59.71;97817.66;5053150;28;20446;-71
2023/01/26 03:32:41;;;;;;;39.20;18.33;;;;;;;5.61;59.31;97815.91;5068836;28;20466;-72
2023/01/26 03:35:08;;;;;;;34.47;17.30;;;;;;;5.54;60.00;97806.88;5057102;28;20426;-70
2023/01/26 03:37:35;;;;;;;32.80;18.20;;;;;;;5.53;59.87;97806.03;5069617;28;20265;-72
2023/01/26 03:56:32;;;;;;;28.40;15.40;;;;;;;5.56;59.23;97799.78;5058487;28;20425;-71
2023/01/26 03:59:07;;;;;;;28.07;15.27;;;;;;;5.55;59.50;97805.91;5057649;28;20472;-70
2023/01/26 04:01:34;;;;;;;29.67;15.10;;;;;;;5.38;59.85;97797.53;5046556;28;20178;-71
2023/01/26 04:09:30;;;;;;;30.33;15.07;;;;;;;5.19;60.21;97799.69;5060393;28;20440;-72
2023/01/26 04:11:56;;;;;;;25.67;13.60;;;;;;;5.16;60.15;97797.31;5068084;28;20471;-71
2023/01/26 04:22:39;;;;;;;26.23;14.27;;;;;;;5.31;60.23;97800.63;5059127;28;20448;-72
2023/01/26 04:25:07;;;;;;;24.87;14.10;;;;;;;5.33;60.23;97804.78;5066858;28;20881;-71
2023/01/26 04:27:33;;;;;;;27.23;14.50;;;;;;;5.35;59.97;97804.69;5059850;28;20445;-71
2023/01/26 04:30:00;;;;;;;27.03;15.00;;;;;;;5.33;60.09;97809.97;5050934;28;20539;-73
2023/01/26 04:32:26;;;;;;;28.07;14.40;;;;;;;5.23;59.95;97803.75;5066390;28;20488;-72
2023/01/26 04:34:51;;;;;;;25.97;15.00;;;;;;;5.10;60.62;97800.31;5053461;28;20941;-71
2023/01/26 04:37:17;;;;;;;26.37;14.60;;;;;;;5.12;60.31;97793.25;5066647;28;20254;-71
2023/01/26 04:39:42;;;;;;;28.00;14.70;;;;;;;5.18;60.64;97792.81;5064466;28;20784;-73
2023/01/26 04:42:08;;;;;;;26.03;15.17;;;;;;;5.16;60.21;97795.53;5055112;28;20211;-71
2023/01/26 04:44:33;;;;;;;25.80;14.37;;;;;;;5.17;60.32;97781.63;5059696;28;20251;-72
2023/01/26 04:46:59;;;;;;;32.53;16.07;;;;;;;5.07;60.37;97784.00;5056742;28;20182;-71
2023/01/26 04:49:24;;;;;;;30.07;15.17;;;;;;;5.05;60.85;97785.03;5047201;28;20260;-70
2023/01/26 04:51:49;;;;;;;25.33;14.73;;;;;;;5.09;61.06;97783.91;5059325;28;20210;-72
2023/01/26 04:54:15;;;;;;;28.47;15.40;;;;;;;5.08;61.36;97779.66;5032670;28;20202;-72
2023/01/26 04:56:40;;;;;;;28.33;14.50;;;;;;;5.13;61.37;97774.13;5059581;28;20219;-73
2023/01/26 04:59:06;;;;;;;29.73;14.03;;;;;;;5.19;60.67;97777.16;5053855;28;20728;-72
2023/01/26 05:01:32;;;;;;;26.37;14.70;;;;;;;5.22;61.02;97778.69;5041081;28;20594;-73
2023/01/26 05:03:59;;;;;;;28.50;14.33;;;;;;;5.23;60.72;97775.16;5046748;28;20421;-73
2023/01/26 05:06:24;;;;;;;27.23;12.83;;;;;;;5.20;60.68;97775.38;5066345;28;20242;-72
2023/01/26 05:08:50;;;;;;;23.13;13.43;;;;;;;5.25;60.42;97780.25;5058161;28;20433;-72
2023/01/26 05:11:15;;;;;;;31.13;16.03;;;;;;;5.30;60.56;97776.41;5055143;28;20293;-72
2023/01/26 05:13:40;;;;;;;21.70;12.70;;;;;;;5.22;59.55;97783.91;5059955;28;20189;-72
2023/01/26 05:16:06;;;;;;;24.47;12.70;;;;;;;5.23;60.11;97775.16;5051135;28;20598;-70
2023/01/26 05:18:32;;;;;;;21.50;12.20;;;;;;;5.31;58.93;97780.66;5053281;28;20193;-71
2023/01/26 05:20:58;;;;;;;20.93;12.00;;;;;;;5.26;59.07;97780.16;5053851;28;20662;-71
2023/01/26 05:23:24;;;;;;;22.50;12.10;;;;;;;5.32;59.47;97777.13;5063264;28;20189;-71
2023/01/26 05:25:49;;;;;;;20.60;11.90;;;;;;;5.28;59.03;97783.50;5058401;28;20226;-71
2023/01/26 05:28:14;;;;;;;22.77;12.90;;;;;;;5.31;58.73;97778.06;5055920;28;20425;-73
2023/01/26 05:30:40;;;;;;;19.90;11.60;;;;;;;5.28;58.61;97783.50;5041977;28;20234;-74
2023/01/26 05:33:07;;;;;;;20.33;11.93;;;;;;;5.29;58.15;97787.75;5055152;28;20360;-74
2023/01/26 05:35:33;;;;;;;20.70;12.43;;;;;;;5.32;58.65;97790.13;5042583;28;20187;-72
2023/01/26 05:37:59;;;;;;;23.37;12.97;;;;;;;5.38;59.10;97784.53;5050244;28;20425;-71
2023/01/26 05:40:25;;;;;;;25.93;13.50;;;;;;;5.35;58.41;97789.91;5051807;28;20218;-72
2023/01/26 05:42:51;;;;;;;20.40;12.63;;;;;;;5.27;58.64;97792.22;5057058;28;20273;-71
2023/01/26 05:45:16;;;;;;;20.60;11.57;;;;;;;5.19;58.88;97784.09;5052067;28;20301;-71
2023/01/26 05:47:43;;;;;;;20.57;12.07;;;;;;;5.16;58.37;97790.34;5054319;28;20504;-72
2023/01/26 05:50:09;;;;;;;20.20;11.63;;;;;;;5.15;58.89;97790.47;5063429;28;20281;-71
2023/01/26 05:52:35;;;;;;;18.93;11.40;;;;;;;5.05;59.03;97791.06;5050961;28;20468;-70
2023/01/26 05:55:00;;;;;;;20.80;11.10;;;;;;;5.04;59.12;97792.00;5056839;28;20417;-71
2023/01/26 05:57:26;;;;;;;21.57;11.50;;;;;;;5.12;59.24;97785.47;5065396;28;20547;-72
2023/01/26 05:59:52;;;;;;;16.50;10.10;;;;;;;5.19;58.77;97792.75;5058146;28;20207;-72
2023/01/26 06:02:18;;;;;;;20.43;11.10;;;;;;;5.20;58.65;97785.75;5057818;28;20595;-71
2023/01/26 06:04:43;;;;;;;17.37;10.63;;;;;;;5.19;58.39;97792.75;5065608;28;20482;-72
2023/01/26 06:07:08;;;;;;;16.37;9.73;;;;;;;5.14;58.44;97791.38;5053578;28;20615;-71
2023/01/26 06:09:34;;;;;;;21.17;11.97;;;;;;;5.06;58.51;97795.31;5055496;28;20219;-71
2023/01/26 06:11:59;;;;;;;18.20;10.37;;;;;;;5.08;58.63;97793.47;5061526;28;20239;-72
2023/01/26 06:14:25;;;;;;;16.83;11.10;;;;;;;5.00;57.88;97795.75;5064775;28;20267;-72
2023/01/26 06:16:53;;;;;;;19.70;11.10;;;;;;;4.95;58.29;97797.00;5050673;28;20196;-70
2023/01/26 06:19:18;;;;;;;16.77;10.00;;;;;;;4.93;58.50;97791.88;5065140;28;20214;-72
2023/01/26 06:21:43;;;;;;;16.60;10.40;;;;;;;4.88;58.50;97796.56;5065147;28;20965;-72
2023/01/26 06:24:09;;;;;;;19.23;11.20;;;;;;;4.99;58.83;97799.28;5061712;28;20269;-72
2023/01/26 06:26:34;;;;;;;17.93;10.20;;;;;;;5.07;58.23;97791.78;5051605;28;20270;-72
2023/01/26 06:29:00;;;;;;;16.73;10.90;;;;;;;5.12;57.94;97799.28;5059297;28;20742;-71
2023/01/26 06:31:28;;;;;;;17.00;10.87;;;;;;;5.06;58.50;97799.69;5049599;28;20317;-72
2023/01/26 06:33:53;;;;;;;16.50;9.67;;;;;;;5.00;58.86;97798.34;5059371;28;20243;-72
2023/01/26 06:36:19;;;;;;;17.83;10.77;;;;;;;5.08;58.04;97801.25;5063007;28;20427;-72
2023/01/26 06:38:47;;;;;;;18.33;10.00;;;;;;;5.05;58.24;97804.03;5068418;28;20226;-72
2023/01/26 06:41:12;;;;;;;17.03;10.03;;;;;;;5.10;58.41;97805.50;5056137;28;20195;-72
2023/01/26 06:43:38;;;;;;;19.70;11.07;;;;;;;5.10;58.36;97802.91;5062064;28;20420;-72
2023/01/26 06:46:04;;;;;;;18.03;10.73;;;;;;;5.02;57.86;97801.69;5056882;28;20201;-71
2023/01/26 06:48:32;;;;;;;16.73;9.67;;;;;;;4.95;58.43;97800.41;5057417;28;20236;-72
2023/01/26 06:51:22;;;;;;;16.00;10.37;;;;;;;4.92;58.70;97795.41;5045437;28;20445;-72
2023/01/26 06:53:55;;;;;;;17.93;10.67;;;;;;;4.91;58.73;97801.56;5042409;28;20444;-73
2023/01/26 06:56:21;;;;;;;20.33;11.57;;;;;;;4.84;58.97;97797.69;5030971;28;20429;-72
2023/01/26 06:58:46;;;;;;;21.30;12.10;;;;;;;4.89;58.33;97799.03;5040449;28;20446;-73
2023/01/26 07:01:22;;;;;;;21.30;11.20;;;;;;;4.83;58.74;97798.63;5046843;28;20274;-73
2023/01/26 07:03:49;;;;;;;18.97;11.27;;;;;;;4.81;58.85;97803.09;5039017;28;20210;-72
2023/01/26 07:06:14;;;;;;;19.90;11.17;;;;;;;4.80;58.43;97801.41;5053690;28;20433;-72
2023/01/26 07:08:40;;;;;;;17.73;11.00;;;;;;;4.84;58.95;97798.53;5045549;28;20976;-72
2023/01/26 07:11:06;;;;;;;24.13;12.13;;;;;;;4.85;58.04;97804.56;5054139;28;20261;-70
2023/01/26 07:13:31;;;;;;;17.80;11.67;;;;;;;4.84;58.43;97803.75;5053118;28;20187;-71
2023/01/26 07:16:11;;;;;;;23.30;10.97;;;;;;;4.78;58.99;97809.31;5043289;28;20427;-72
2023/01/26 07:18:36;;;;;;;20.80;11.97;;;;;;;4.74;58.46;97803.50;5050596;28;20190;-73
2023/01/26 07:21:21;;;;;;;21.30;11.50;;;;;;;4.68;59.15;97811.69;5037458;28;20426;-72
2023/01/26 07:23:47;;;;;;;16.97;10.57;;;;;;;4.70;59.09;97816.78;5041897;28;20210;-73
2023/01/26 07:26:13;;;;;;;18.90;11.03;;;;;;;4.62;59.12;97817.28;5045170;28;20430;-72
2023/01/26 07:28:39;;;;;;;17.37;10.77;;;;;;;4.64;59.36;97814.59;5052747;28;20677;-73
2023/01/26 07:31:05;;;;;;;17.23;10.17;;;;;;;4.65;59.25;97811.91;5043227;28;20249;-71
2023/01/26 07:33:32;;;;;;;18.60;11.30;;;;;;;4.68;58.82;97803.06;5050344;28;20269;-72
2023/01/26 07:35:58;;;;;;;18.63;10.27;;;;;;;4.68;59.13;97805.66;5055531;28;20431;-73
2023/01/26 07:38:24;;;;;;;20.43;11.97;;;;;;;4.66;59.75;97815.31;5061663;28;20428;-72
2023/01/26 07:40:50;;;;;;;17.17;11.00;;;;;;;4.74;59.89;97813.88;5055520;28;20438;-72
2023/01/26 07:43:15;;;;;;;18.83;11.60;;;;;;;4.73;58.74;97816.56;5054742;28;20187;-72
2023/01/26 07:45:50;;;;;;;21.47;11.80;;;;;;;4.72;60.03;97817.53;5055457;28;20428;-72
2023/01/26 07:48:15;;;;;;;20.97;11.90;;;;;;;4.87;60.61;97815.69;5051501;28;20208;-71
2023/01/26 07:50:41;;;;;;;20.30;11.50;;;;;;;4.80;59.37;97814.41;5052992;28;20961;-73
2023/01/26 07:53:08;;;;;;;21.53;12.20;;;;;;;4.86;59.14;97816.59;5051926;28;20232;-73
2023/01/26 07:55:34;;;;;;;19.40;11.43;;;;;;;4.93;59.81;97817.84;5047431;28;20534;-73
2023/01/26 07:57:59;;;;;;;18.17;11.30;;;;;;;5.01;59.91;97814.75;5058503;28;20425;-73
2023/01/26 08:00:25;;;;;;;21.57;11.97;;;;;;;5.07;59.68;97815.19;5048703;28;20442;-72
2023/01/26 08:02:50;;;;;;;21.50;12.10;;;;;;;5.07;59.41;97820.38;5056053;28;20273;-72
2023/01/26 08:05:16;;;;;;;24.23;13.10;;;;;;;5.09;58.50;97815.09;5048042;28;20187;-73
2023/01/26 08:07:41;;;;;;;21.73;11.90;;;;;;;5.04;58.25;97811.97;5054761;28;20265;-73
2023/01/26 08:10:09;;;;;;;18.87;11.03;;;;;;;5.02;58.16;97809.47;5042041;28;20235;-72
2023/01/26 08:12:35;;;;;;;19.60;11.50;;;;;;;4.98;57.91;97815.78;5053966;28;20210;-72
2023/01/26 08:15:00;;;;;;;21.50;12.63;;;;;;;4.96;58.47;97820.25;5049934;28;20793;-73
2023/01/26 08:17:28;;;;;;;19.87;12.07;;;;;;;4.96;57.98;97811.66;5047130;28;20266;-72
2023/01/26 08:19:53;;;;;;;22.20;12.40;;;;;;;4.92;57.83;97821.38;5059776;28;20350;-73
2023/01/26 08:22:18;;;;;;;21.23;12.00;;;;;;;4.91;58.30;97817.97;5057402;28;20540;-72
2023/01/26 08:24:44;;;;;;;19.97;11.87;;;;;;;4.99;59.48;97814.00;5061663;28;20225;-72
2023/01/26 08:27:09;;;;;;;16.77;10.57;;;;;;;5.04;59.08;97817.97;5054637;28;20229;-73
2023/01/26 08:29:35;;;;;;;20.23;11.30;;;;;;;5.07;58.83;97822.16;5060488;28;20194;-72
2023/01/26 08:32:00;;;;;;;20.03;10.80;;;;;;;5.04;58.88;97811.97;5059066;28;20216;-73
2023/01/26 08:34:26;;;;;;;17.80;10.63;;;;;;;5.07;58.16;97811.75;5059413;28;20727;-72
2023/01/26 08:36:51;;;;;;;19.17;10.87;;;;;;;5.14;58.28;97810.41;5049848;28;20202;-73
2023/01/26 08:39:17;;;;;;;15.63;10.20;;;;;;;5.17;57.96;97824.94;5064050;28;20281;-74
2023/01/26 08:41:42;;;;;;;30.03;18.07;;;;;;;5.20;57.82;97807.41;5051951;28;20179;-73
2023/01/26 08:44:09;;;;;;;41.97;23.20;;;;;;;5.29;57.83;97805.09;5063902;28;20210;-72
2023/01/26 08:46:34;;;;;;;27.13;15.50;;;;;;;5.41;57.60;97809.47;5058215;28;20179;-73
2023/01/26 08:49:00;;;;;;;17.60;11.60;;;;;;;5.50;57.46;97810.59;5063584;28;20535;-73
2023/01/26 08:51:25;;;;;;;17.83;10.87;;;;;;;5.54;56.54;97812.06;5056920;28;20202;-73
2023/01/26 08:53:53;;;;;;;16.83;9.70;;;;;;;5.59;56.27;97807.38;5043579;28;20552;-73
2023/01/26 08:56:18;;;;;;;16.70;9.77;;;;;;;5.64;56.38;97802.69;5058515;28;20701;-72
2023/01/26 08:58:45;;;;;;;15.93;9.10;;;;;;;5.66;55.50;97813.81;5058355;28;20432;-72
2023/01/26 09:01:12;;;;;;;14.47;9.00;;;;;;;5.73;55.30;97808.19;5059662;28;20183;-72
2023/01/26 09:03:38;;;;;;;16.90;9.80;;;;;;;5.81;54.92;97805.88;5057859;28;20436;-73
2023/01/26 09:06:04;;;;;;;17.07;10.13;;;;;;;5.86;55.34;97803.78;5064355;28;20428;-73
2023/01/26 09:08:30;;;;;;;16.33;9.60;;;;;;;5.90;54.56;97804.41;5059809;28;20186;-72
2023/01/26 09:10:55;;;;;;;19.03;10.70;;;;;;;5.86;54.81;97808.16;5061071;28;20511;-73
2023/01/26 09:13:21;;;;;;;20.20;10.73;;;;;;;5.88;55.85;97801.91;5056176;28;20563;-72
2023/01/26 09:15:47;;;;;;;19.80;11.30;;;;;;;5.95;55.47;97800.53;5052265;28;20185;-72
2023/01/26 09:18:12;;;;;;;23.90;13.57;;;;;;;5.89;54.16;97802.72;5062737;28;20189;-73
2023/01/26 09:20:37;;;;;;;23.17;12.77;;;;;;;5.70;54.24;97806.63;5058147;28;20237;-73
2023/01/26 09:23:03;;;;;;;17.80;11.63;;;;;;;5.47;54.69;97803.88;5056603;28;20210;-72
2023/01/26 09:25:28;;;;;;;20.00;10.90;;;;;;;5.48;54.46;97802.91;5063476;28;20632;-72
2023/01/26 09:27:54;;;;;;;19.33;11.30;;;;;;;5.34;54.75;97801.25;5056829;28;20419;-73
2023/01/26 09:30:19;;;;;;;17.90;11.60;;;;;;;5.31;54.91;97804.06;5046663;28;20587;-72
2023/01/26 09:32:45;;;;;;;17.23;10.67;;;;;;;5.26;55.40;97806.16;5064502;28;20213;-72
2023/01/26 09:35:10;;;;;;;21.17;9.97;;;;;;;5.16;55.08;97807.72;5063284;28;20571;-72
2023/01/26 09:37:37;;;;;;;16.00;10.23;;;;;;;5.07;55.78;97811.75;5072396;28;20205;-73
2023/01/26 09:40:04;;;;;;;15.83;10.33;;;;;;;5.13;56.34;97811.34;5062183;28;20282;-72
2023/01/26 09:42:58;;;;;;;15.17;9.40;;;;;;;5.07;54.57;97822.97;5062406;28;20419;-71
2023/01/26 09:45:32;;;;;;;15.47;9.30;;;;;;;5.00;55.17;97815.69;5058339;28;20512;-72
2023/01/26 09:48:20;;;;;;;13.83;9.00;;;;;;;4.98;54.83;97823.59;5058221;28;20796;-73
2023/01/26 09:51:07;;;;;;;13.83;9.10;;;;;;;5.02;55.08;97817.25;5045270;28;20433;-73
2023/01/26 09:53:42;;;;;;;15.90;8.90;;;;;;;4.95;55.12;97818.59;5062137;28;20477;-73
2023/01/26 09:56:14;;;;;;;16.40;9.70;;;;;;;5.00;54.58;97821.72;5069609;28;20790;-72
2023/01/26 09:58:41;;;;;;;17.97;9.87;;;;;;;5.03;54.22;97821.53;5061903;28;20421;-73
2023/01/26 10:01:20;;;;;;;18.63;9.83;;;;;;;4.98;54.65;97813.19;5062942;28;20414;-70
2023/01/26 10:03:50;;;;;;;16.07;9.60;;;;;;;4.92;54.70;97808.41;5058481;28;20484;-72
2023/01/26 10:06:27;;;;;;;18.87;11.27;;;;;;;4.90;55.37;97812.88;5062488;28;20436;-71
2023/01/26 10:09:02;;;;;;;16.00;10.10;;;;;;;4.95;55.29;97807.38;5050832;28;20442;-74
2023/01/26 10:11:37;;;;;;;18.30;10.60;;;;;;;4.85;55.58;97807.97;5066951;28;20465;-73
2023/01/26 10:14:35;;;;;;;17.83;10.43;;;;;;;4.78;55.46;97809.31;5060757;28;20417;-74
2023/01/26 10:17:03;;;;;;;15.43;9.60;;;;;;;4.78;55.10;97817.13;5020967;28;20852;-74
2023/01/26 10:19:38;;;;;;;17.80;10.20;;;;;;;4.75;55.56;97817.31;5037012;28;20451;-73
2023/01/26 10:22:14;;;;;;;18.73;9.70;;;;;;;4.69;55.89;97815.94;5038119;28;20420;-73
2023/01/26 10:24:39;;;;;;;19.00;10.10;;;;;;;4.63;56.05;97803.38;5034571;28;20576;-73
2023/01/26 10:27:09;;;;;;;16.00;10.90;;;;;;;4.76;56.02;97800.78;5039860;28;20465;-73
2023/01/26 10:29:34;;;;;;;15.77;10.57;;;;;;;4.74;55.95;97803.50;5032466;28;20230;-74
2023/01/26 10:31:59;;;;;;;16.63;9.97;;;;;;;4.71;56.13;97806.28;5033357;28;20497;-73
2023/01/26 10:34:26;;;;;;;20.07;10.10;;;;;;;4.69;56.11;97802.97;5038609;28;20180;-72
2023/01/26 10:36:57;;;;;;;16.07;10.00;;;;;;;4.68;56.35;97803.88;5041855;28;20187;-74
2023/01/26 10:39:22;;;;;;;19.13;10.70;;;;;;;4.68;56.13;97810.84;5052683;28;20482;-73
2023/01/26 10:41:59;;;;;;;14.87;9.97;;;;;;;4.67;56.48;97814.38;5026195;28;20442;-72
2023/01/26 10:44:34;;;;;;;15.77;9.90;;;;;;;4.69;56.78;97815.94;5040234;28;20313;-73
2023/01/26 10:47:12;;;;;;;17.60;10.13;;;;;;;4.69;56.70;97810.75;5037941;28;20429;-73
2023/01/26 10:49:38;;;;;;;15.97;8.80;;;;;;;4.68;56.24;97811.69;5038001;28;20535;-73
2023/01/26 10:52:11;;;;;;;16.00;8.03;;;;;;;4.63;55.63;97810.31;5046333;28;20855;-73
2023/01/26 10:54:38;;;;;;;11.33;7.50;;;;;;;4.63;55.19;97800.78;5046290;28;20202;-73
2023/01/26 10:57:15;;;;;;;13.27;8.17;;;;;;;4.61;54.69;97795.66;5044151;28;20480;-72
2023/01/26 10:59:50;;;;;;;11.97;7.13;;;;;;;4.63;54.64;97803.38;5041156;28;20520;-74
2023/01/26 11:02:19;;;;;;;14.80;8.77;;;;;;;4.66;54.69;97799.75;5049805;28;20405;-71
2023/01/26 11:05:10;;;;;;;13.60;8.37;;;;;;;4.67;55.40;97799.63;5046351;28;20428;-74
2023/01/26 11:07:38;;;;;;;12.17;7.70;;;;;;;4.68;54.74;97800.47;5041094;28;20524;-74
2023/01/26 11:10:17;;;;;;;13.70;8.40;;;;;;;4.64;54.53;97799.84;5040819;28;20451;-72
2023/01/26 11:12:42;;;;;;;14.83;9.20;;;;;;;4.71;54.82;97790.72;5043703;28;21032;-74
2023/01/26 11:15:19;;;;;;;14.90;8.13;;;;;;;4.76;55.21;97793.84;5039397;28;20426;-72
2023/01/26 11:17:48;;;;;;;13.67;7.80;;;;;;;4.76;55.42;97793.84;5039049;28;20187;-74
2023/01/26 11:20:36;;;;;;;13.50;8.00;;;;;;;4.68;54.84;97785.72;5041554;28;20525;-71
2023/01/26 11:23:16;;;;;;;14.50;8.60;;;;;;;4.55;55.24;97780.50;5044302;28;20422;-71
2023/01/26 11:26:04;;;;;;;14.87;8.87;;;;;;;4.58;55.44;97779.47;5039045;28;20928;-73
2023/01/26 11:28:46;;;;;;;14.60;8.70;;;;;;;4.50;56.51;97779.97;5044902;28;20486;-73
2023/01/26 11:31:18;;;;;;;17.37;10.03;;;;;;;4.55;56.19;97779.66;5040203;28;20470;-71
2023/01/26 11:34:11;;;;;;;16.03;9.23;;;;;;;4.43;56.31;97776.13;5023627;28;20482;-74
2023/01/26 11:37:22;;;;;;;27.20;13.07;;;;;;;4.36;56.86;97773.09;5051496;28;20429;-72
2023/01/26 11:40:14;;;;;;;16.90;9.30;;;;;;;4.32;56.40;97766.41;5041911;28;20957;-74
2023/01/26 11:42:53;;;;;;;16.50;10.03;;;;;;;4.26;57.15;97767.66;5038826;28;20409;-73
2023/01/26 11:45:31;;;;;;;18.77;10.47;;;;;;;4.26;56.89;97774.63;5045225;28;20417;-71
2023/01/26 11:48:02;;;;;;;19.03;10.00;;;;;;;4.21;56.81;97766.28;5041511;28;20504;-74
2023/01/26 11:50:34;;;;;;;19.00;10.40;;;;;;;4.27;56.90;97761.53;5044786;28;20520;-72
2023/01/26 11:53:29;;;;;;;16.07;9.50;;;;;;;4.27;57.25;97760.72;5029562;28;20517;-74
2023/01/26 11:56:19;;;;;;;19.57;10.63;;;;;;;4.19;57.26;97758.59;5042629;28;20423;-72
2023/01/26 11:58:52;;;;;;;19.70;9.90;;;;;;;4.17;57.37;97759.63;5036216;28;20517;-72
2023/01/26 12:01:28;;;;;;;21.40;11.50;;;;;;;4.12;58.28;97755.56;5042863;28;20830;-73
2023/01/26 12:03:54;;;;;;;19.07;11.20;;;;;;;4.09;57.98;97755.75;5041758;28;20801;-73
2023/01/26 12:06:36;;;;;;;16.47;9.47;;;;;;;3.98;57.21;97751.25;5048707;28;21021;-72
2023/01/26 12:09:20;;;;;;;19.90;10.30;;;;;;;3.99;58.15;97752.09;5058743;28;20452;-74
2023/01/26 12:12:27;;;;;;;21.50;11.10;;;;;;;4.04;58.93;97750.00;5043725;28;20888;-73
2023/01/26 12:14:58;;;;;;;23.23;11.10;;;;;;;4.04;58.70;97747.44;5029731;28;20795;-73
2023/01/26 12:17:43;;;;;;;19.97;11.03;;;;;;;4.10;58.73;97738.41;5039980;28;20474;-74